createdAt,value
2019-05-19T00:00:50.014Z,6.0
2019-05-19T00:02:50.193Z,6.0
2019-05-19T00:04:49.626Z,6.0
2019-05-19T00:06:49.875Z,6.0
2019-05-19T00:08:49.962Z,6.2
2019-05-19T00:10:50.026Z,6.5
2019-05-19T00:12:50.103Z,6.1
2019-05-19T00:14:50.065Z,6.1
2019-05-19T00:16:50.318Z,6.6
2019-05-19T00:18:50.343Z,6.3
2019-05-19T00:20:50.324Z,6.3
2019-05-19T00:22:50.361Z,6.4
2019-05-19T00:24:50.385Z,6.4
2019-05-19T00:26:49.552Z,6.4
2019-05-19T00:28:50.516Z,6.4
2019-05-19T00:30:49.542Z,6.7
2019-05-19T00:32:49.597Z,7.2
2019-05-19T00:34:50.201Z,7.2
2019-05-19T00:36:50.389Z,6.6
2019-05-19T00:38:50.525Z,6.9
2019-05-19T00:40:49.540Z,7.0
2019-05-19T00:42:49.693Z,7.1
2019-05-19T00:44:49.658Z,7.1
2019-05-19T00:46:49.797Z,7.5
2019-05-19T00:48:49.862Z,7.4
2019-05-19T00:50:49.935Z,7.4
2019-05-19T00:52:49.943Z,7.8
2019-05-19T00:54:50.001Z,7.8
2019-05-19T00:56:50.287Z,8.5
2019-05-19T00:58:50.356Z,8.1
2019-05-19T01:00:50.337Z,8.6
2019-05-19T01:02:50.409Z,8.6
2019-05-19T01:04:49.738Z,8.6
2019-05-19T01:06:49.962Z,8.2
2019-05-19T01:08:50.004Z,8.2
2019-05-19T01:10:50.064Z,8.2
2019-05-19T01:12:50.148Z,8.1
2019-05-19T01:14:50.481Z,8.3
2019-05-19T01:16:49.689Z,8.5
2019-05-19T01:18:49.836Z,8.7
2019-05-19T01:20:49.924Z,8.7
2019-05-19T01:22:50.001Z,9.3
2019-05-19T01:24:50.016Z,8.9
2019-05-19T01:26:50.346Z,8.9
2019-05-19T01:28:50.388Z,9.9
2019-05-19T01:30:50.456Z,9.9
2019-05-19T01:32:49.683Z,9.7
2019-05-19T01:34:50.079Z,10.2
2019-05-19T01:36:50.350Z,10.6
2019-05-19T01:38:50.434Z,10.6
2019-05-19T01:40:50.514Z,10.6
2019-05-19T01:42:49.685Z,10.6
2019-05-19T01:44:49.683Z,10.7
2019-05-19T01:46:49.846Z,11.2
2019-05-19T01:48:49.849Z,11.0
2019-05-19T01:50:49.836Z,11.0
2019-05-19T01:52:49.967Z,11.4
2019-05-19T01:54:50.322Z,11.0
2019-05-19T01:56:49.599Z,11.3
2019-05-19T01:58:49.650Z,11.3
2019-05-19T02:00:49.786Z,12.0
2019-05-19T02:02:49.845Z,12.3
2019-05-19T02:04:50.261Z,12.0
2019-05-19T02:06:50.378Z,11.7
2019-05-19T02:08:50.516Z,11.5
2019-05-19T02:10:49.572Z,11.5
2019-05-19T02:12:49.562Z,11.8
2019-05-19T02:14:49.674Z,11.7
2019-05-19T02:16:49.960Z,11.7
2019-05-19T02:18:50.000Z,11.7
2019-05-19T02:20:50.128Z,11.7
2019-05-19T02:22:50.232Z,12.0
2019-05-19T02:24:50.322Z,12.2
2019-05-19T02:26:50.464Z,12.2
2019-05-19T02:28:50.489Z,11.9
2019-05-19T02:30:49.554Z,12.9
2019-05-19T02:32:49.609Z,12.3
2019-05-19T02:34:50.106Z,12.6
2019-05-19T02:36:50.344Z,12.3
2019-05-19T02:38:50.327Z,12.3
2019-05-19T02:40:50.476Z,12.1
2019-05-19T02:42:50.460Z,12.2
2019-05-19T02:44:49.553Z,12.2
2019-05-19T02:46:49.825Z,11.8
2019-05-19T02:48:49.832Z,11.8
2019-05-19T02:50:53.123Z,12.1
2019-05-19T02:52:50.306Z,12.3
2019-05-19T02:54:50.442Z,12.3
2019-05-19T02:56:49.663Z,12.3
2019-05-19T02:58:49.728Z,12.4
2019-05-19T03:00:49.785Z,12.0
2019-05-19T03:02:49.869Z,12.6
2019-05-19T03:04:50.242Z,12.6
2019-05-19T03:06:50.367Z,12.0
2019-05-19T03:08:50.474Z,12.0
2019-05-19T03:10:50.484Z,12.6
2019-05-19T03:12:49.533Z,12.7
2019-05-19T03:14:49.614Z,13.4
2019-05-19T03:16:49.943Z,13.4
2019-05-19T03:18:50.033Z,12.7
2019-05-19T03:20:50.090Z,12.7
2019-05-19T03:22:50.145Z,13.1
2019-05-19T03:24:50.171Z,13.7
2019-05-19T03:26:50.378Z,13.7
2019-05-19T03:28:50.389Z,13.1
2019-05-19T03:30:50.427Z,12.7
2019-05-19T03:32:49.991Z,13.0
2019-05-19T03:34:50.365Z,13.0
2019-05-19T03:36:50.522Z,13.0
2019-05-19T03:38:49.675Z,13.2
2019-05-19T03:40:49.757Z,13.1
2019-05-19T03:42:49.780Z,13.5
2019-05-19T03:44:49.870Z,12.9
2019-05-19T03:46:50.108Z,12.9
2019-05-19T03:48:50.284Z,13.5
2019-05-19T03:50:50.349Z,14.1
2019-05-19T03:52:50.500Z,14.0
2019-05-19T03:54:49.702Z,14.0
2019-05-19T03:56:49.838Z,12.8
2019-05-19T03:58:49.866Z,12.7
2019-05-19T04:00:49.981Z,12.7
2019-05-19T04:02:50.038Z,12.9
2019-05-19T04:04:50.402Z,12.9
2019-05-19T04:06:49.708Z,12.9
2019-05-19T04:08:49.720Z,12.5
2019-05-19T04:10:49.762Z,11.7
2019-05-19T04:12:49.909Z,11.3
2019-05-19T04:14:50.035Z,11.3
2019-05-19T04:16:50.310Z,11.0
2019-05-19T04:18:50.358Z,10.8
2019-05-19T04:20:50.419Z,10.6
2019-05-19T04:22:50.436Z,10.6
2019-05-19T04:24:50.544Z,10.6
2019-05-19T04:26:50.305Z,10.1
2019-05-19T04:28:50.424Z,10.8
2019-05-19T04:30:49.612Z,10.9
2019-05-19T04:32:49.631Z,10.5
2019-05-19T04:34:50.115Z,10.5
2019-05-19T04:36:50.369Z,10.5
2019-05-19T04:38:50.483Z,10.5
2019-05-19T04:40:50.511Z,10.1
2019-05-19T04:42:49.676Z,10.1
2019-05-19T04:44:49.740Z,10.2
2019-05-19T04:46:49.988Z,10.7
2019-05-19T04:48:50.101Z,10.5
2019-05-19T04:50:50.107Z,10.2
2019-05-19T04:52:50.204Z,10.2
2019-05-19T04:54:50.242Z,9.8
2019-05-19T04:56:50.489Z,9.8
2019-05-19T04:58:49.666Z,9.9
2019-05-19T05:00:49.651Z,9.9
2019-05-19T05:02:49.790Z,9.9
2019-05-19T05:04:50.256Z,11.3
2019-05-19T05:06:50.429Z,10.1
2019-05-19T05:08:50.443Z,11.0
2019-05-19T05:10:49.563Z,11.0
2019-05-19T05:12:49.622Z,10.4
2019-05-19T05:14:49.572Z,10.4
2019-05-19T05:16:49.764Z,10.0
2019-05-19T05:18:49.780Z,10.9
2019-05-19T05:20:49.795Z,11.0
2019-05-19T05:22:49.960Z,11.0
2019-05-19T05:24:50.104Z,11.0
2019-05-19T05:26:50.328Z,10.5
2019-05-19T05:28:50.350Z,10.5
2019-05-19T05:30:50.375Z,10.5
2019-05-19T05:32:50.366Z,10.9
2019-05-19T05:34:49.715Z,12.0
2019-05-19T05:36:49.782Z,12.5
2019-05-19T05:38:49.823Z,11.9
2019-05-19T05:40:49.815Z,11.9
2019-05-19T05:42:49.809Z,11.5
2019-05-19T05:44:49.944Z,11.5
2019-05-19T05:46:50.120Z,11.5
2019-05-19T05:48:50.169Z,11.5
2019-05-19T05:50:50.255Z,11.5
2019-05-19T05:52:50.245Z,11.7
2019-05-19T05:54:50.335Z,12.1
2019-05-19T05:56:50.506Z,12.1
2019-05-19T05:58:50.498Z,12.0
2019-05-19T06:00:49.596Z,12.0
2019-05-19T06:02:49.677Z,12.2
2019-05-19T06:04:50.218Z,12.5
2019-05-19T06:06:50.382Z,12.1
2019-05-19T06:08:50.397Z,12.6
2019-05-19T06:10:50.478Z,12.6
2019-05-19T06:12:49.518Z,14.6
2019-05-19T06:14:49.621Z,14.9
2019-05-19T06:16:49.893Z,14.9
2019-05-19T06:18:49.884Z,15.0
2019-05-19T06:20:49.974Z,15.0
2019-05-19T06:22:57.318Z,14.4
2019-05-19T06:24:50.471Z,14.4
2019-05-19T06:26:49.587Z,16.2
2019-05-19T06:28:49.666Z,16.2
2019-05-19T06:30:49.673Z,17.5
2019-05-19T06:32:49.660Z,17.3
2019-05-19T06:34:50.248Z,16.6
2019-05-19T06:36:50.505Z,17.1
2019-05-19T06:38:50.533Z,17.1
2019-05-19T06:40:49.674Z,17.5
2019-05-19T06:42:49.751Z,17.5
2019-05-19T06:44:49.846Z,17.6
2019-05-19T06:46:49.976Z,17.7
2019-05-19T06:48:50.062Z,17.7
2019-05-19T06:50:50.127Z,17.4
2019-05-19T06:52:50.191Z,16.9
2019-05-19T06:54:50.275Z,16.9
2019-05-19T06:56:50.412Z,16.8
2019-05-19T06:58:50.490Z,16.8
2019-05-19T07:00:49.673Z,16.0
2019-05-19T07:02:49.669Z,16.0
2019-05-19T07:04:50.277Z,16.7
2019-05-19T07:06:50.426Z,16.7
2019-05-19T07:08:49.631Z,16.4
2019-05-19T07:10:49.645Z,16.6
2019-05-19T07:12:49.850Z,16.3
2019-05-19T07:14:49.848Z,15.8
2019-05-19T07:16:50.073Z,15.8
2019-05-19T07:18:50.156Z,16.0
2019-05-19T07:20:50.224Z,16.1
2019-05-19T07:22:50.281Z,16.4
2019-05-19T07:24:50.315Z,16.4
2019-05-19T07:26:50.472Z,15.8
2019-05-19T07:28:50.509Z,16.6
2019-05-19T07:30:49.593Z,17.1
2019-05-19T07:32:49.675Z,16.8
2019-05-19T07:34:50.169Z,16.8
2019-05-19T07:36:50.264Z,16.7
2019-05-19T07:38:50.295Z,16.6
2019-05-19T07:40:50.267Z,16.8
2019-05-19T07:42:50.448Z,16.8
2019-05-19T07:44:50.495Z,16.4
2019-05-19T07:46:49.667Z,16.4
2019-05-19T07:48:49.701Z,16.5
2019-05-19T07:50:49.742Z,15.4
2019-05-19T07:52:49.836Z,15.4
2019-05-19T07:54:49.832Z,15.7
2019-05-19T07:56:50.089Z,15.7
2019-05-19T07:58:50.170Z,15.7
2019-05-19T08:00:50.207Z,15.3
2019-05-19T08:02:50.287Z,15.3
2019-05-19T08:04:49.717Z,14.4
2019-05-19T08:06:50.000Z,14.4
2019-05-19T08:08:50.018Z,14.3
2019-05-19T08:10:50.132Z,14.1
2019-05-19T08:12:50.160Z,14.4
2019-05-19T08:14:50.208Z,14.4
2019-05-19T08:16:50.365Z,14.4
2019-05-19T08:18:50.475Z,13.6
2019-05-19T08:20:49.617Z,13.8
2019-05-19T08:22:51.644Z,12.8
2019-05-19T08:24:49.713Z,12.8
2019-05-19T08:26:50.013Z,14.8
2019-05-19T08:28:50.088Z,14.2
2019-05-19T08:30:50.181Z,15.4
2019-05-19T08:32:50.478Z,15.4
2019-05-19T08:34:50.163Z,15.3
2019-05-19T08:36:50.298Z,16.7
2019-05-19T08:38:50.378Z,16.3
2019-05-19T08:40:50.557Z,15.5
2019-05-19T08:42:49.782Z,15.5
2019-05-19T08:44:49.825Z,15.0
2019-05-19T08:46:49.953Z,14.4
2019-05-19T08:48:50.160Z,14.4
2019-05-19T08:50:50.398Z,11.5
2019-05-19T08:52:50.470Z,11.7
2019-05-19T08:54:49.540Z,11.7
2019-05-19T08:56:49.683Z,12.4
2019-05-19T08:58:49.759Z,12.5
2019-05-19T09:00:49.825Z,12.0
2019-05-19T09:02:49.833Z,12.0
2019-05-19T09:04:50.336Z,11.0
2019-05-19T09:06:49.529Z,10.7
2019-05-19T09:08:49.652Z,13.1
2019-05-19T09:10:49.886Z,13.2
2019-05-19T09:12:49.955Z,13.2
2019-05-19T09:14:49.950Z,13.2
2019-05-19T09:16:50.120Z,13.5
2019-05-19T09:18:50.169Z,13.2
2019-05-19T09:20:50.241Z,13.6
2019-05-19T09:22:50.456Z,13.6
2019-05-19T09:24:50.501Z,13.5
2019-05-19T09:26:49.733Z,12.9
2019-05-19T09:28:49.724Z,11.7
2019-05-19T09:30:49.762Z,11.7
2019-05-19T09:32:49.784Z,11.8
2019-05-19T09:34:50.159Z,11.2
2019-05-19T09:36:50.306Z,11.2
2019-05-19T09:38:50.304Z,11.2
2019-05-19T09:40:50.290Z,8.8
2019-05-19T09:42:50.491Z,8.8
2019-05-19T09:44:50.705Z,8.7
2019-05-19T09:46:50.257Z,8.1
2019-05-19T09:48:50.299Z,8.1
2019-05-19T09:50:50.465Z,8.5
2019-05-19T09:52:50.452Z,8.5
2019-05-19T09:54:50.459Z,7.8
2019-05-19T09:56:49.687Z,8.1
2019-05-19T09:58:49.739Z,7.9
2019-05-19T10:00:49.840Z,8.5
2019-05-19T10:02:49.900Z,8.5
2019-05-19T10:04:50.214Z,8.9
2019-05-19T10:06:50.433Z,9.6
2019-05-19T10:08:49.686Z,9.3
2019-05-19T10:10:49.622Z,9.3
2019-05-19T10:12:49.832Z,9.0
2019-05-19T10:14:49.918Z,9.4
2019-05-19T10:16:50.218Z,9.7
2019-05-19T10:18:50.200Z,9.4
2019-05-19T10:20:50.650Z,9.4
2019-05-19T10:22:49.727Z,9.8
2019-05-19T10:25:20.187Z,9.4
2019-05-19T10:26:50.027Z,9.8
2019-05-19T10:28:50.030Z,9.4
2019-05-19T10:30:50.071Z,9.4
2019-05-19T10:32:50.144Z,9.3
2019-05-19T10:34:50.510Z,9.2
2019-05-19T10:36:49.708Z,9.6
2019-05-19T10:38:49.825Z,8.1
2019-05-19T10:40:49.907Z,8.1
2019-05-19T10:42:50.152Z,8.7
2019-05-19T10:44:50.196Z,7.7
2019-05-19T10:46:50.455Z,8.2
2019-05-19T10:48:50.458Z,8.4
2019-05-19T10:50:50.441Z,8.4
2019-05-19T10:52:49.523Z,7.7
2019-05-19T10:54:50.450Z,7.6
2019-05-19T10:56:49.630Z,8.1
2019-05-19T10:58:49.719Z,8.1
2019-05-19T11:00:49.723Z,7.8
2019-05-19T11:02:49.827Z,8.1
2019-05-19T11:04:50.246Z,7.2
2019-05-19T11:06:50.323Z,7.2
2019-05-19T11:08:50.319Z,7.5
2019-05-19T11:10:50.296Z,7.8
2019-05-19T11:12:50.371Z,7.3
2019-05-19T11:14:50.414Z,7.3
2019-05-19T11:16:49.542Z,8.1
2019-05-19T11:18:49.577Z,8.1
2019-05-19T11:20:49.538Z,7.6
2019-05-19T11:22:49.672Z,8.1
2019-05-19T11:24:49.740Z,7.8
2019-05-19T11:26:49.975Z,7.8
2019-05-19T11:28:50.000Z,8.2
2019-05-19T11:30:50.034Z,7.7
2019-05-19T11:32:50.139Z,8.2
2019-05-19T11:34:50.515Z,8.3
2019-05-19T11:36:49.596Z,8.3
2019-05-19T11:38:49.656Z,8.3
2019-05-19T11:40:49.743Z,7.7
2019-05-19T11:42:49.833Z,7.7
2019-05-19T11:44:49.799Z,6.9
2019-05-19T11:46:49.945Z,6.9
2019-05-19T11:48:50.074Z,6.3
2019-05-19T11:50:50.153Z,4.5
2019-05-19T11:52:50.234Z,4.5
2019-05-19T11:54:50.317Z,5.7
2019-05-19T11:56:49.619Z,5.7
2019-05-19T11:58:49.600Z,5.2
2019-05-19T12:00:49.696Z,5.9
2019-05-19T12:02:49.698Z,6.2
2019-05-19T12:04:50.196Z,6.2
2019-05-19T12:06:50.300Z,6.2
2019-05-19T12:08:50.377Z,6.5
2019-05-19T12:10:49.522Z,6.6
2019-05-19T12:12:50.505Z,6.5
2019-05-19T12:14:49.677Z,6.5
2019-05-19T12:16:50.048Z,6.5
2019-05-19T12:18:50.447Z,6.4
2019-05-19T12:20:49.539Z,6.7
2019-05-19T12:22:49.615Z,6.9
2019-05-19T12:24:49.617Z,6.9
2019-05-19T12:26:49.748Z,6.5
2019-05-19T12:28:49.876Z,6.4
2019-05-19T12:30:49.887Z,5.5
2019-05-19T12:32:49.898Z,5.5
2019-05-19T12:34:50.279Z,6.0
2019-05-19T12:36:50.476Z,4.9
2019-05-19T12:38:49.509Z,5.2
2019-05-19T12:40:50.522Z,5.2
2019-05-19T12:42:49.611Z,5.9
2019-05-19T12:44:49.700Z,5.9
2019-05-19T12:46:49.800Z,6.2
2019-05-19T12:48:49.836Z,6.0
2019-05-19T12:50:49.865Z,6.0
2019-05-19T12:52:49.847Z,6.0
2019-05-19T12:54:49.890Z,6.3
2019-05-19T12:56:50.203Z,5.9
2019-05-19T12:58:50.257Z,5.1
2019-05-19T13:00:50.335Z,4.9
2019-05-19T13:02:50.455Z,5.1
2019-05-19T13:05:04.666Z,5.1
2019-05-19T13:06:50.291Z,5.5
2019-05-19T13:08:50.249Z,6.6
2019-05-19T13:10:50.253Z,6.3
2019-05-19T13:12:50.330Z,6.3
2019-05-19T13:14:50.460Z,6.6
2019-05-19T13:16:49.726Z,6.1
2019-05-19T13:18:49.808Z,5.7
2019-05-19T13:20:49.837Z,5.7
2019-05-19T13:22:49.913Z,5.8
2019-05-19T13:24:49.924Z,5.3
2019-05-19T13:26:57.114Z,5.4
2019-05-19T13:28:50.271Z,5.9
2019-05-19T13:30:50.350Z,6.8
2019-05-19T13:32:50.444Z,6.8
2019-05-19T13:34:50.159Z,5.9
2019-05-19T13:36:50.275Z,4.6
2019-05-19T13:38:50.281Z,4.6
2019-05-19T13:40:50.317Z,4.6
2019-05-19T13:42:50.309Z,4.3
2019-05-19T13:44:50.255Z,4.3
2019-05-19T13:46:50.533Z,4.1
2019-05-19T13:48:49.550Z,4.1
2019-05-19T13:50:49.716Z,3.8
2019-05-19T13:52:51.492Z,3.7
2019-05-19T13:54:50.548Z,3.8
2019-05-19T13:56:49.785Z,4.1
2019-05-19T13:58:49.903Z,4.0
2019-05-19T14:00:49.941Z,4.0
2019-05-19T14:02:50.024Z,4.1
2019-05-19T14:04:50.359Z,4.1
2019-05-19T14:06:49.616Z,4.9
2019-05-19T14:08:49.724Z,4.2
2019-05-19T14:10:49.811Z,4.2
2019-05-19T14:12:49.805Z,4.5
2019-05-19T14:14:49.848Z,4.8
2019-05-19T14:16:49.909Z,4.8
2019-05-19T14:18:50.007Z,4.6
2019-05-19T14:20:50.034Z,5.4
2019-05-19T14:22:50.120Z,5.5
2019-05-19T14:24:50.020Z,5.1
2019-05-19T14:26:50.249Z,5.2
2019-05-19T14:28:50.255Z,5.2
2019-05-19T14:30:50.262Z,5.3
2019-05-19T14:32:50.295Z,5.4
2019-05-19T14:34:49.643Z,5.1
2019-05-19T14:36:49.777Z,5.0
2019-05-19T14:38:49.743Z,5.3
2019-05-19T14:40:49.801Z,5.3
2019-05-19T14:42:49.819Z,5.4
2019-05-19T14:44:50.199Z,5.5
2019-05-19T14:46:50.462Z,5.3
2019-05-19T14:48:50.423Z,5.2
2019-05-19T14:50:50.367Z,5.2
2019-05-19T14:52:49.538Z,5.6
2019-05-19T14:54:49.634Z,5.8
2019-05-19T14:56:49.891Z,5.8
2019-05-19T14:58:50.002Z,5.4
2019-05-19T15:00:50.123Z,5.7
2019-05-19T15:02:50.268Z,6.0
2019-05-19T15:04:49.540Z,5.5
2019-05-19T15:06:49.832Z,5.7
2019-05-19T15:08:49.861Z,5.7
2019-05-19T15:10:49.819Z,6.3
2019-05-19T15:12:49.763Z,6.0
2019-05-19T15:14:49.791Z,5.6
2019-05-19T15:16:50.018Z,6.1
2019-05-19T15:18:50.116Z,6.1
2019-05-19T15:20:50.114Z,6.3
2019-05-19T15:22:50.172Z,6.3
2019-05-19T15:24:50.263Z,6.5
2019-05-19T15:26:50.436Z,6.0
2019-05-19T15:28:50.435Z,6.0
2019-05-19T15:30:50.449Z,6.4
2019-05-19T15:32:50.462Z,6.3
2019-05-19T15:34:49.901Z,6.3
2019-05-19T15:36:49.996Z,6.3
2019-05-19T15:38:50.006Z,6.1
2019-05-19T15:40:50.086Z,6.0
2019-05-19T15:42:50.137Z,6.1
2019-05-19T15:44:50.113Z,6.1
2019-05-19T15:46:50.262Z,5.9
2019-05-19T15:48:50.358Z,5.9
2019-05-19T15:50:50.416Z,6.0
2019-05-19T15:52:50.468Z,6.0
2019-05-19T15:54:50.416Z,6.0
2019-05-19T15:56:49.577Z,6.0
2019-05-19T15:58:49.673Z,6.0
2019-05-19T16:00:49.687Z,6.0
2019-05-19T16:02:49.799Z,6.2
2019-05-19T16:04:50.196Z,6.2
2019-05-19T16:06:50.276Z,6.3
2019-05-19T16:08:50.313Z,6.2
2019-05-19T16:10:50.307Z,6.2
2019-05-19T16:12:50.390Z,6.5
2019-05-19T16:14:50.430Z,6.5
2019-05-19T16:16:49.587Z,6.5
2019-05-19T16:18:53.429Z,6.6
2019-05-19T16:20:50.423Z,6.4
2019-05-19T16:22:50.431Z,6.2
2019-05-19T16:24:50.078Z,6.2
2019-05-19T16:26:50.372Z,6.3
2019-05-19T16:28:50.322Z,5.9
2019-05-19T16:30:50.279Z,6.3
2019-05-19T16:32:50.393Z,6.2
2019-05-19T16:34:49.863Z,6.2
2019-05-19T16:36:50.033Z,6.3
2019-05-19T16:38:50.015Z,6.3
2019-05-19T16:40:50.089Z,6.3
2019-05-19T16:42:50.114Z,6.1
2019-05-19T16:44:50.149Z,6.1
2019-05-19T16:46:50.415Z,6.0
2019-05-19T16:48:50.422Z,6.0
2019-05-19T16:50:50.450Z,6.6
2019-05-19T16:52:49.880Z,7.0
2019-05-19T16:54:50.035Z,7.0
2019-05-19T16:56:50.229Z,6.3
2019-05-19T16:58:50.191Z,6.7
2019-05-19T17:00:50.250Z,6.3
2019-05-19T17:02:50.223Z,6.7
2019-05-19T17:04:49.559Z,6.7
2019-05-19T17:06:49.818Z,6.2
2019-05-19T17:08:49.752Z,5.9
2019-05-19T17:10:49.810Z,6.3
2019-05-19T17:12:49.834Z,6.3
2019-05-19T17:14:49.894Z,6.5
2019-05-19T17:16:50.051Z,6.4
2019-05-19T17:18:50.030Z,6.6
2019-05-19T17:20:50.199Z,6.5
2019-05-19T17:22:50.175Z,6.5
2019-05-19T17:24:50.298Z,6.8
2019-05-19T17:26:49.532Z,6.6
2019-05-19T17:29:01.132Z,6.6
2019-05-19T17:30:50.346Z,6.8
2019-05-19T17:32:50.393Z,6.8
2019-05-19T17:34:49.801Z,6.6
2019-05-19T17:36:49.923Z,7.2
2019-05-19T17:38:49.903Z,6.9
2019-05-19T17:40:49.862Z,6.9
2019-05-19T17:42:50.077Z,6.3
2019-05-19T17:44:50.127Z,5.9
2019-05-19T17:46:50.333Z,6.0
2019-05-19T17:48:50.314Z,6.6
2019-05-19T17:50:50.333Z,7.2
2019-05-19T17:52:50.302Z,7.2
2019-05-19T17:54:50.369Z,7.8
2019-05-19T17:56:49.655Z,7.9
2019-05-19T17:58:49.594Z,9.0
2019-05-19T18:00:49.713Z,8.8
2019-05-19T18:02:49.747Z,8.8
2019-05-19T18:04:50.219Z,9.0
2019-05-19T18:06:50.436Z,9.1
2019-05-19T18:08:50.447Z,9.5
2019-05-19T18:10:50.457Z,9.5
2019-05-19T18:12:49.672Z,8.9
2019-05-19T18:14:49.730Z,9.4
2019-05-19T18:16:49.901Z,9.7
2019-05-19T18:18:49.926Z,9.7
2019-05-19T18:20:49.983Z,9.4
2019-05-19T18:22:50.040Z,9.2
2019-05-19T18:24:50.111Z,9.5
2019-05-19T18:26:50.307Z,9.5
2019-05-19T18:28:50.291Z,9.4
2019-05-19T18:30:50.384Z,9.4
2019-05-19T18:32:50.394Z,9.5
2019-05-19T18:34:49.826Z,9.4
2019-05-19T18:36:49.889Z,10.1
2019-05-19T18:38:49.898Z,9.7
2019-05-19T18:40:49.933Z,9.7
2019-05-19T18:42:49.959Z,9.4
2019-05-19T18:44:50.239Z,9.4
2019-05-19T18:46:50.071Z,9.6
2019-05-19T18:48:49.733Z,9.6
2019-05-19T18:50:49.793Z,9.6
2019-05-19T18:52:50.085Z,9.9
2019-05-19T18:54:50.636Z,9.7
2019-05-19T18:56:51.336Z,10.0
2019-05-19T18:58:50.382Z,9.5
2019-05-19T19:00:50.464Z,9.5
2019-05-19T19:02:49.572Z,9.0
2019-05-19T19:04:49.886Z,8.3
2019-05-19T19:06:50.168Z,8.3
2019-05-19T19:08:50.263Z,8.4
2019-05-19T19:10:50.306Z,8.2
2019-05-19T19:12:50.390Z,8.8
2019-05-19T19:14:50.468Z,8.8
2019-05-19T19:16:49.700Z,9.2
2019-05-19T19:18:49.751Z,9.2
2019-05-19T19:20:49.884Z,9.5
2019-05-19T19:22:50.010Z,10.0
2019-05-19T19:24:50.090Z,11.7
2019-05-19T19:26:49.575Z,12.6
2019-05-19T19:28:49.769Z,12.6
2019-05-19T19:30:49.942Z,15.1
2019-05-19T19:32:50.118Z,14.2
2019-05-19T19:34:49.598Z,14.5
2019-05-19T19:36:49.813Z,14.5
2019-05-19T19:38:49.995Z,11.4
2019-05-19T19:40:50.151Z,10.3
2019-05-19T19:42:50.388Z,9.6
2019-05-19T19:44:50.490Z,9.5
2019-05-19T19:46:53.940Z,11.0
2019-05-19T19:48:50.115Z,11.0
2019-05-19T19:50:50.202Z,14.4
2019-05-19T19:52:50.279Z,14.4
2019-05-19T19:54:50.464Z,14.4
2019-05-19T19:56:49.764Z,13.9
2019-05-19T19:58:49.756Z,13.9
2019-05-19T20:00:49.881Z,16.4
2019-05-19T20:02:49.999Z,16.4
2019-05-19T20:04:50.430Z,14.1
2019-05-19T20:06:49.746Z,13.4
2019-05-19T20:08:49.899Z,14.5
2019-05-19T20:10:49.973Z,14.5
2019-05-19T20:12:50.120Z,9.8
2019-05-19T20:14:50.286Z,7.7
2019-05-19T20:16:49.631Z,7.7
2019-05-19T20:18:49.806Z,7.5
2019-05-19T20:20:50.029Z,8.1
2019-05-19T20:22:50.097Z,8.1
2019-05-19T20:24:50.331Z,11.4
2019-05-19T20:26:49.525Z,11.4
2019-05-19T20:28:49.670Z,11.3
2019-05-19T20:30:49.859Z,10.7
2019-05-19T20:32:50.135Z,12.1
2019-05-19T20:34:49.886Z,12.2
2019-05-19T20:36:50.325Z,12.2
2019-05-19T20:38:50.487Z,11.0
2019-05-19T20:40:49.679Z,11.8
2019-05-19T20:42:49.781Z,12.5
2019-05-19T20:44:49.880Z,12.5
2019-05-19T20:46:50.102Z,13.5
2019-05-19T20:48:50.158Z,13.9
2019-05-19T20:50:50.257Z,14.5
2019-05-19T20:52:50.382Z,13.6
2019-05-19T20:54:50.453Z,13.6
2019-05-19T20:56:49.578Z,13.9
2019-05-19T20:58:49.617Z,14.2
2019-05-19T21:00:52.009Z,13.6
2019-05-19T21:02:50.173Z,13.6
2019-05-19T21:04:49.563Z,13.5
2019-05-19T21:06:49.894Z,12.8
2019-05-19T21:08:50.043Z,13.9
2019-05-19T21:10:50.148Z,13.9
2019-05-19T21:12:50.242Z,13.2
2019-05-19T21:14:50.225Z,13.2
2019-05-19T21:16:50.472Z,12.9
2019-05-19T21:18:49.678Z,12.2
2019-05-19T21:20:49.810Z,12.2
2019-05-19T21:22:49.882Z,12.2
2019-05-19T21:24:50.000Z,12.2
2019-05-19T21:26:50.220Z,12.7
2019-05-19T21:28:50.317Z,12.1
2019-05-19T21:31:05.554Z,13.3
2019-05-19T21:32:50.443Z,13.3
2019-05-19T21:34:50.184Z,12.7
2019-05-19T21:36:50.392Z,13.0
2019-05-19T21:38:50.519Z,14.1
2019-05-19T21:40:50.037Z,15.1
2019-05-19T21:42:50.184Z,15.1
2019-05-19T21:44:50.259Z,15.1
2019-05-19T21:46:50.519Z,15.2
2019-05-19T21:48:49.594Z,16.1
2019-05-19T21:50:49.614Z,17.9
2019-05-19T21:52:49.712Z,17.9
2019-05-19T21:54:49.813Z,17.9
2019-05-19T21:56:50.071Z,15.8
2019-05-19T21:58:50.096Z,15.8
2019-05-19T22:00:50.210Z,16.4
2019-05-19T22:02:50.291Z,16.4
2019-05-19T22:04:49.691Z,17.0
2019-05-19T22:06:50.154Z,17.0
2019-05-19T22:08:50.324Z,17.0
2019-05-19T22:10:50.452Z,18.4
2019-05-19T22:12:49.584Z,18.4
2019-05-19T22:14:49.668Z,18.3
2019-05-19T22:16:49.769Z,20.3
2019-05-19T22:18:49.808Z,20.3
2019-05-19T22:20:49.953Z,20.3
2019-05-19T22:22:50.310Z,21.6
2019-05-19T22:24:50.331Z,22.6
2019-05-19T22:26:50.453Z,21.0
2019-05-19T22:28:50.504Z,21.3
2019-05-19T22:30:49.591Z,21.3
2019-05-19T22:32:49.707Z,19.9
2019-05-19T22:34:50.221Z,20.1
2019-05-19T22:36:50.365Z,20.6
2019-05-19T22:38:50.447Z,20.6
2019-05-19T22:40:49.574Z,20.9
2019-05-19T22:42:49.662Z,20.3
2019-05-19T22:44:49.763Z,22.1
2019-05-19T22:46:49.920Z,23.2
2019-05-19T22:48:50.010Z,23.2
2019-05-19T22:50:50.160Z,23.5
2019-05-19T22:52:50.140Z,24.5
2019-05-19T22:54:50.205Z,23.6
2019-05-19T22:56:50.453Z,23.6
2019-05-19T22:58:50.464Z,23.6
2019-05-19T23:00:49.627Z,23.6
2019-05-19T23:02:49.765Z,23.5
2019-05-19T23:04:50.190Z,23.9
2019-05-19T23:06:50.408Z,22.5
2019-05-19T23:08:50.453Z,24.3
2019-05-19T23:10:50.509Z,24.3
2019-05-19T23:12:49.631Z,23.3
2019-05-19T23:14:49.780Z,23.3
2019-05-19T23:16:49.927Z,25.5
2019-05-19T23:18:49.964Z,25.5
2019-05-19T23:20:50.036Z,24.3
2019-05-19T23:22:50.136Z,25.5
2019-05-19T23:24:50.301Z,25.5
2019-05-19T23:26:50.502Z,24.7
2019-05-19T23:28:49.662Z,24.7
2019-05-19T23:30:49.614Z,24.8
2019-05-19T23:32:49.719Z,25.1
2019-05-19T23:34:50.053Z,24.8
2019-05-19T23:36:50.286Z,24.8
2019-05-19T23:38:50.414Z,21.3
2019-05-19T23:40:49.557Z,22.0
2019-05-19T23:42:49.611Z,20.0
2019-05-19T23:44:49.749Z,19.8
2019-05-19T23:46:49.883Z,19.8
2019-05-19T23:48:49.886Z,20.7
2019-05-19T23:50:50.017Z,21.3
2019-05-19T23:52:50.172Z,21.4
2019-05-19T23:54:50.230Z,21.6
2019-05-19T23:56:50.462Z,21.6
2019-05-19T23:58:50.512Z,20.9
